Eel River, Indiana
Current Conditions -  °F | °C
As of 10:55 AM on Friday 19 Dec 2014 (Local Time) from KGWB Reporting Station
Haze Haze  
Wind Chill: 30°   Ceiling: 1200
Heat Index: 30°   Visibility: 5mi
Dew Point: 25°   Wind: 0mph
Humidity: 80%   Direction: NA
Pressure: 30.29"   Gusts: NA
Location:  41.225°N, 85.325°W
Report Text: KGWB 191555Z AUTO 00000KT 5SM HZ BKN012 OVC017 M01/M04 A3029 RMK AO2
Loading
Personal Weather Stations






























Interactive Weather Map New forecast layout! Learn more

10-Day Weather Forecast

Advertisements
Track Severe Weather on mobile